AIE885 CYQR-CYWG
Flight info
| Callsign | AIE885 |
|---|---|
| Flight time | N/A |
| Altitude | 25000 |
| Route | EMLIK DCT SEGAP BEFAN5 |
| Aircraft | B350/L-SBGRW/S |
Departure
| Time | 2026-04-17 03:22 |
|---|---|
| Airport | Regina International Airport (CYQR) |
Arrival
| Time | N/A |
|---|---|
| Airport | Winnipeg / James Armstrong Richardson International Airport (CYWG) |
| Time | Latitude | Longitude | Altitude | Speed | Heading |
|---|---|---|---|---|---|
| 2026-04-17 02:30 | 50.43797 | -104.65527 | 1882 ft | 0 kts | 359° |
| 2026-04-17 03:12 | 50.43801 | -104.65527 | 1882 ft | 3 kts | 359° |
| 2026-04-17 03:12 | 50.43823 | -104.65516 | 1882 ft | 6 kts | 37° |
| 2026-04-17 03:12 | 50.43816 | -104.65410 | 1882 ft | 15 kts | 146° |
| 2026-04-17 03:13 | 50.43744 | -104.65415 | 1882 ft | 7 kts | 250° |
| 2026-04-17 03:13 | 50.43740 | -104.65431 | 1882 ft | 0 kts | 234° |
| 2026-04-17 03:13 | 50.43733 | -104.65432 | 1882 ft | 5 kts | 133° |
| 2026-04-17 03:13 | 50.43767 | -104.65480 | 1882 ft | 15 kts | 277° |
| 2026-04-17 03:14 | 50.43769 | -104.65577 | 1883 ft | 1 kts | 265° |
| 2026-04-17 03:14 | 50.43769 | -104.65664 | 1884 ft | 13 kts | 271° |
| 2026-04-17 03:14 | 50.43769 | -104.65872 | 1885 ft | 23 kts | 269° |
| 2026-04-17 03:14 | 50.43716 | -104.66074 | 1887 ft | 22 kts | 228° |
| 2026-04-17 03:15 | 50.43621 | -104.66238 | 1888 ft | 13 kts | 225° |
| 2026-04-17 03:15 | 50.43521 | -104.66164 | 1888 ft | 22 kts | 137° |
| 2026-04-17 03:15 | 50.43385 | -104.65972 | 1889 ft | 28 kts | 138° |
| 2026-04-17 03:15 | 50.43247 | -104.65778 | 1889 ft | 27 kts | 137° |
| 2026-04-17 03:16 | 50.43118 | -104.65601 | 1889 ft | 28 kts | 139° |
| 2026-04-17 03:16 | 50.42959 | -104.65372 | 1889 ft | 34 kts | 137° |
| 2026-04-17 03:16 | 50.42767 | -104.65103 | 1889 ft | 39 kts | 139° |
| 2026-04-17 03:16 | 50.42594 | -104.64895 | 1889 ft | 15 kts | 175° |
| 2026-04-17 03:17 | 50.42536 | -104.64898 | 1889 ft | 0 kts | 186° |
| 2026-04-17 03:17 | 50.42530 | -104.64899 | 1889 ft | 7 kts | 185° |
| 2026-04-17 03:18 | 50.42468 | -104.64925 | 1890 ft | 17 kts | 215° |
| 2026-04-17 03:18 | 50.42462 | -104.65037 | 1890 ft | 17 kts | 323° |
| 2026-04-17 03:18 | 50.42485 | -104.65066 | 1890 ft | 0 kts | 319° |
| 2026-04-17 03:22 | 50.42485 | -104.65067 | 1890 ft | 0 kts | 320° |
| 2026-04-17 03:22 | 50.42701 | -104.65374 | 1890 ft | 98 kts | 319° |
| 2026-04-17 03:22 | 50.43364 | -104.66329 | 2232 ft | 141 kts | 318° |
| 2026-04-17 03:22 | 50.44058 | -104.67417 | 3033 ft | 148 kts | 319° |
| 2026-04-17 03:23 | 50.44801 | -104.68572 | 3769 ft | 156 kts | 318° |
| 2026-04-17 03:23 | 50.45569 | -104.69810 | 4473 ft | 164 kts | 316° |
| 2026-04-17 03:23 | 50.46389 | -104.71128 | 4945 ft | 183 kts | 316° |
| 2026-04-17 03:23 | 50.47403 | -104.72698 | 4995 ft | 217 kts | 316° |
| 2026-04-17 03:24 | 50.48571 | -104.74498 | 5345 ft | 224 kts | 317° |
| 2026-04-17 03:24 | 50.49637 | -104.76154 | 6500 ft | 193 kts | 318° |
| 2026-04-17 03:24 | 50.50539 | -104.77502 | 7417 ft | 172 kts | 316° |
| 2026-04-17 03:24 | 50.51559 | -104.78382 | 7972 ft | 172 kts | 350° |
| 2026-04-17 03:25 | 50.52728 | -104.77945 | 8341 ft | 182 kts | 33° |
| 2026-04-17 03:25 | 50.53495 | -104.76356 | 8667 ft | 191 kts | 66° |
| 2026-04-17 03:25 | 50.53801 | -104.74297 | 9038 ft | 196 kts | 87° |
| 2026-04-17 03:25 | 50.53806 | -104.72170 | 9428 ft | 198 kts | 95° |
| 2026-04-17 03:26 | 50.53707 | -104.70018 | 9838 ft | 198 kts | 98° |
| 2026-04-17 03:26 | 50.53569 | -104.67851 | 10233 ft | 199 kts | 100° |
| 2026-04-17 03:26 | 50.53420 | -104.65715 | 10631 ft | 200 kts | 101° |
| 2026-04-17 03:26 | 50.53261 | -104.63487 | 11103 ft | 206 kts | 101° |
| 2026-04-17 03:27 | 50.53099 | -104.61243 | 11736 ft | 207 kts | 101° |
| 2026-04-17 03:27 | 50.52938 | -104.59038 | 12436 ft | 205 kts | 102° |
| 2026-04-17 03:27 | 50.52777 | -104.56830 | 13140 ft | 201 kts | 102° |
| 2026-04-17 03:27 | 50.52621 | -104.54690 | 13827 ft | 198 kts | 102° |
| 2026-04-17 03:28 | 50.52466 | -104.52584 | 14463 ft | 196 kts | 102° |
| 2026-04-17 03:28 | 50.52311 | -104.50471 | 15072 ft | 195 kts | 103° |
| 2026-04-17 03:28 | 50.52155 | -104.48366 | 15617 ft | 196 kts | 104° |
| 2026-04-17 03:28 | 50.51993 | -104.46179 | 16162 ft | 198 kts | 104° |
| 2026-04-17 03:29 | 50.51829 | -104.43967 | 16682 ft | 200 kts | 104° |
| 2026-04-17 03:29 | 50.51667 | -104.41788 | 17158 ft | 203 kts | 105° |
| 2026-04-17 03:29 | 50.51502 | -104.39578 | 17647 ft | 205 kts | 107° |
| 2026-04-17 03:29 | 50.51334 | -104.37331 | 18126 ft | 208 kts | 107° |
| 2026-04-17 03:30 | 50.51162 | -104.35030 | 18724 ft | 208 kts | 107° |
| 2026-04-17 03:30 | 50.50992 | -104.32752 | 19285 ft | 208 kts | 108° |
| 2026-04-17 03:30 | 50.50822 | -104.30488 | 19786 ft | 209 kts | 110° |
| 2026-04-17 03:30 | 50.50647 | -104.28182 | 20286 ft | 210 kts | 111° |
| 2026-04-17 03:31 | 50.50474 | -104.25887 | 20813 ft | 208 kts | 113° |
| 2026-04-17 03:31 | 50.50304 | -104.23644 | 21292 ft | 207 kts | 115° |
| 2026-04-17 03:31 | 50.50133 | -104.21415 | 21726 ft | 208 kts | 116° |
| 2026-04-17 03:31 | 50.49961 | -104.19149 | 22188 ft | 207 kts | 117° |
| 2026-04-17 03:32 | 50.49791 | -104.16914 | 22632 ft | 206 kts | 118° |
| 2026-04-17 03:32 | 50.49622 | -104.14711 | 23080 ft | 203 kts | 120° |
| 2026-04-17 03:32 | 50.49455 | -104.12532 | 23486 ft | 201 kts | 121° |
| 2026-04-17 03:32 | 50.49287 | -104.10381 | 23838 ft | 202 kts | 123° |
| 2026-04-17 03:33 | 50.49117 | -104.08177 | 24199 ft | 203 kts | 123° |
| 2026-04-17 03:33 | 50.48943 | -104.05962 | 24533 ft | 205 kts | 122° |
| 2026-04-17 03:33 | 50.48772 | -104.03763 | 24878 ft | 207 kts | 123° |
| 2026-04-17 03:33 | 50.48581 | -104.01421 | 24941 ft | 225 kts | 121° |
| 2026-04-17 03:34 | 50.48382 | -103.98894 | 24977 ft | 243 kts | 120° |
| 2026-04-17 03:34 | 50.48170 | -103.96174 | 24967 ft | 259 kts | 117° |
| 2026-04-17 03:34 | 50.47943 | -103.93265 | 24968 ft | 274 kts | 115° |
| 2026-04-17 03:34 | 50.47700 | -103.90189 | 24959 ft | 291 kts | 115° |
| 2026-04-17 03:35 | 50.47443 | -103.86951 | 24983 ft | 304 kts | 114° |
| 2026-04-17 03:35 | 50.47166 | -103.83459 | 24977 ft | 317 kts | 112° |
| 2026-04-17 03:35 | 50.46891 | -103.79989 | 24970 ft | 328 kts | 113° |
| 2026-04-17 03:35 | 50.46603 | -103.76366 | 24973 ft | 335 kts | 112° |
| 2026-04-17 03:36 | 50.46012 | -103.68992 | 24962 ft | 340 kts | 112° |
| 2026-04-17 03:36 | 50.45713 | -103.65286 | 24961 ft | 340 kts | 112° |
| 2026-04-17 03:36 | 50.45412 | -103.61588 | 24971 ft | 340 kts | 111° |
| 2026-04-17 03:37 | 50.45111 | -103.57897 | 24976 ft | 341 kts | 112° |
| 2026-04-17 03:37 | 50.44810 | -103.54216 | 24966 ft | 340 kts | 112° |
| 2026-04-17 03:37 | 50.44510 | -103.50583 | 24958 ft | 339 kts | 112° |
| 2026-04-17 03:37 | 50.44208 | -103.46916 | 24975 ft | 338 kts | 112° |
| 2026-04-17 03:38 | 50.43903 | -103.43250 | 24968 ft | 336 kts | 113° |
| 2026-04-17 03:38 | 50.43599 | -103.39598 | 24970 ft | 335 kts | 112° |
| 2026-04-17 03:38 | 50.43298 | -103.35998 | 24975 ft | 334 kts | 112° |
| 2026-04-17 03:38 | 50.42995 | -103.32381 | 24978 ft | 334 kts | 112° |
| 2026-04-17 03:39 | 50.42689 | -103.28758 | 24948 ft | 334 kts | 114° |
| 2026-04-17 03:39 | 50.42383 | -103.25142 | 24979 ft | 332 kts | 112° |
| 2026-04-17 03:39 | 50.42077 | -103.21541 | 24968 ft | 331 kts | 112° |
| 2026-04-17 03:39 | 50.41774 | -103.17979 | 24960 ft | 331 kts | 112° |
| 2026-04-17 03:40 | 50.41470 | -103.14425 | 24977 ft | 331 kts | 113° |
| 2026-04-17 03:40 | 50.41163 | -103.10847 | 24995 ft | 330 kts | 112° |
| 2026-04-17 03:40 | 50.40849 | -103.07227 | 24934 ft | 333 kts | 112° |
| 2026-04-17 03:40 | 50.40543 | -103.03669 | 24987 ft | 331 kts | 113° |
| 2026-04-17 03:41 | 50.40234 | -103.00105 | 24968 ft | 332 kts | 112° |
| 2026-04-17 03:41 | 50.39919 | -102.96494 | 24976 ft | 331 kts | 113° |
| 2026-04-17 03:41 | 50.39599 | -102.92851 | 24948 ft | 332 kts | 112° |
| 2026-04-17 03:41 | 50.39284 | -102.89246 | 24991 ft | 332 kts | 112° |
| 2026-04-17 03:42 | 50.38967 | -102.85649 | 24968 ft | 333 kts | 112° |
| 2026-04-17 03:42 | 50.38647 | -102.82031 | 24935 ft | 334 kts | 112° |
| 2026-04-17 03:42 | 50.38331 | -102.78472 | 24932 ft | 333 kts | 112° |
| 2026-04-17 03:42 | 50.38011 | -102.74873 | 24955 ft | 332 kts | 112° |
| 2026-04-17 03:43 | 50.37683 | -102.71204 | 24975 ft | 332 kts | 113° |
| 2026-04-17 03:43 | 50.37358 | -102.67590 | 24956 ft | 333 kts | 112° |
| 2026-04-17 03:43 | 50.37036 | -102.64017 | 24952 ft | 333 kts | 112° |
| 2026-04-17 03:43 | 50.36710 | -102.60397 | 24955 ft | 333 kts | 111° |
| 2026-04-17 03:44 | 50.36383 | -102.56797 | 24963 ft | 333 kts | 112° |
| 2026-04-17 03:44 | 50.36058 | -102.53222 | 24946 ft | 334 kts | 112° |
| 2026-04-17 03:44 | 50.35699 | -102.49658 | 24930 ft | 328 kts | 116° |
| 2026-04-17 03:44 | 50.35141 | -102.46171 | 24975 ft | 325 kts | 118° |
| 2026-04-17 03:45 | 50.34559 | -102.42575 | 24957 ft | 326 kts | 118° |
| 2026-04-17 03:45 | 50.33995 | -102.39110 | 24958 ft | 326 kts | 118° |
| 2026-04-17 03:45 | 50.33432 | -102.35673 | 24976 ft | 326 kts | 118° |
| 2026-04-17 03:45 | 50.32854 | -102.32149 | 24938 ft | 326 kts | 119° |
| 2026-04-17 03:46 | 50.32291 | -102.28732 | 24964 ft | 326 kts | 119° |
| 2026-04-17 03:46 | 50.31720 | -102.25271 | 24963 ft | 326 kts | 118° |
| 2026-04-17 03:46 | 50.31150 | -102.21827 | 24956 ft | 326 kts | 118° |
| 2026-04-17 03:46 | 50.30580 | -102.18385 | 24949 ft | 326 kts | 118° |
| 2026-04-17 03:47 | 50.29994 | -102.14862 | 24958 ft | 328 kts | 118° |
| 2026-04-17 03:47 | 50.29418 | -102.11403 | 24952 ft | 330 kts | 117° |
| 2026-04-17 03:47 | 50.28836 | -102.07912 | 24959 ft | 332 kts | 118° |
| 2026-04-17 03:47 | 50.28248 | -102.04394 | 24955 ft | 334 kts | 117° |
| 2026-04-17 03:48 | 50.27656 | -102.00853 | 24965 ft | 335 kts | 118° |
| 2026-04-17 03:48 | 50.27064 | -101.97324 | 24950 ft | 336 kts | 118° |
| 2026-04-17 03:48 | 50.26472 | -101.93806 | 24954 ft | 337 kts | 117° |
| 2026-04-17 03:48 | 50.25875 | -101.90259 | 24948 ft | 338 kts | 117° |
| 2026-04-17 03:49 | 50.25253 | -101.86575 | 24959 ft | 339 kts | 118° |
| 2026-04-17 03:49 | 50.24654 | -101.83031 | 24941 ft | 340 kts | 118° |
| 2026-04-17 03:49 | 50.24044 | -101.79437 | 24948 ft | 340 kts | 118° |
| 2026-04-17 03:49 | 50.23445 | -101.75908 | 24975 ft | 339 kts | 118° |
| 2026-04-17 03:50 | 50.22835 | -101.72323 | 24942 ft | 340 kts | 117° |
| 2026-04-17 03:50 | 50.22229 | -101.68773 | 24948 ft | 340 kts | 117° |
| 2026-04-17 03:50 | 50.21624 | -101.65231 | 24946 ft | 341 kts | 117° |
| 2026-04-17 03:50 | 50.21010 | -101.61643 | 24959 ft | 341 kts | 117° |
| 2026-04-17 03:51 | 50.20397 | -101.58072 | 24966 ft | 341 kts | 117° |
| 2026-04-17 03:51 | 50.19788 | -101.54534 | 24958 ft | 342 kts | 117° |
| 2026-04-17 03:51 | 50.19170 | -101.50946 | 24959 ft | 342 kts | 117° |
| 2026-04-17 03:51 | 50.18550 | -101.47353 | 24960 ft | 342 kts | 117° |
| 2026-04-17 03:52 | 50.17931 | -101.43776 | 24962 ft | 343 kts | 117° |
| 2026-04-17 03:52 | 50.17312 | -101.40204 | 24960 ft | 342 kts | 117° |
| 2026-04-17 03:52 | 50.16690 | -101.36624 | 24959 ft | 342 kts | 117° |
| 2026-04-17 03:52 | 50.16064 | -101.33028 | 24961 ft | 342 kts | 118° |
| 2026-04-17 03:53 | 50.15436 | -101.29427 | 24971 ft | 343 kts | 118° |
| 2026-04-17 03:53 | 50.14808 | -101.25836 | 24949 ft | 343 kts | 117° |
| 2026-04-17 03:53 | 50.14184 | -101.22272 | 24959 ft | 343 kts | 117° |
| 2026-04-17 03:53 | 50.13554 | -101.18681 | 24985 ft | 341 kts | 118° |
| 2026-04-17 03:54 | 50.12925 | -101.15103 | 24961 ft | 342 kts | 118° |
| 2026-04-17 03:54 | 50.12300 | -101.11558 | 24933 ft | 343 kts | 118° |
| 2026-04-17 03:54 | 50.11669 | -101.07983 | 24990 ft | 341 kts | 118° |
| 2026-04-17 03:54 | 50.11038 | -101.04419 | 24954 ft | 342 kts | 117° |
| 2026-04-17 03:55 | 50.10406 | -101.00853 | 24960 ft | 342 kts | 118° |
| 2026-04-17 03:55 | 50.09779 | -100.97319 | 24968 ft | 341 kts | 118° |
| 2026-04-17 03:55 | 50.09147 | -100.93770 | 24948 ft | 342 kts | 117° |
| 2026-04-17 03:55 | 50.08507 | -100.90180 | 24963 ft | 341 kts | 117° |
| 2026-04-17 03:56 | 50.07873 | -100.86632 | 24942 ft | 342 kts | 117° |
| 2026-04-17 03:56 | 50.07235 | -100.83064 | 24946 ft | 342 kts | 117° |
| 2026-04-17 03:56 | 50.06590 | -100.79465 | 24937 ft | 342 kts | 117° |
| 2026-04-17 03:56 | 50.05945 | -100.75877 | 24942 ft | 342 kts | 117° |
| 2026-04-17 03:57 | 50.05302 | -100.72302 | 24920 ft | 343 kts | 118° |
| 2026-04-17 03:57 | 50.04662 | -100.68756 | 24938 ft | 343 kts | 117° |
| 2026-04-17 03:57 | 50.04016 | -100.65186 | 24950 ft | 342 kts | 117° |
| 2026-04-17 03:57 | 50.03367 | -100.61603 | 24945 ft | 343 kts | 117° |
| 2026-04-17 03:58 | 50.02714 | -100.58006 | 24914 ft | 344 kts | 117° |
| 2026-04-17 03:58 | 50.02069 | -100.54459 | 24927 ft | 343 kts | 117° |
| 2026-04-17 03:58 | 50.01417 | -100.50877 | 24944 ft | 343 kts | 117° |
| 2026-04-17 03:58 | 50.00771 | -100.47337 | 24928 ft | 343 kts | 117° |
| 2026-04-17 03:59 | 50.00109 | -100.43729 | 24811 ft | 347 kts | 116° |
| 2026-04-17 03:59 | 49.99459 | -100.40176 | 24664 ft | 337 kts | 117° |
| 2026-04-17 03:59 | 49.98827 | -100.36719 | 24201 ft | 327 kts | 117° |
| 2026-04-17 03:59 | 49.98217 | -100.33402 | 23807 ft | 317 kts | 118° |
| 2026-04-17 04:00 | 49.97611 | -100.30117 | 23412 ft | 308 kts | 118° |
| 2026-04-17 04:00 | 49.97030 | -100.26972 | 23020 ft | 301 kts | 117° |
| 2026-04-17 04:00 | 49.96451 | -100.23846 | 22636 ft | 295 kts | 118° |
| 2026-04-17 04:00 | 49.95898 | -100.20863 | 22260 ft | 289 kts | 117° |
| 2026-04-17 04:01 | 49.95349 | -100.17905 | 21878 ft | 284 kts | 117° |
| 2026-04-17 04:01 | 49.94796 | -100.14934 | 21489 ft | 280 kts | 117° |
| 2026-04-17 04:01 | 49.94258 | -100.12044 | 21085 ft | 277 kts | 117° |
| 2026-04-17 04:01 | 49.93719 | -100.09155 | 20678 ft | 274 kts | 116° |
| 2026-04-17 04:02 | 49.93193 | -100.06342 | 20284 ft | 271 kts | 116° |
| 2026-04-17 04:02 | 49.92668 | -100.03534 | 19884 ft | 269 kts | 116° |
| 2026-04-17 04:02 | 49.92154 | -100.00792 | 19487 ft | 267 kts | 115° |
| 2026-04-17 04:02 | 49.91639 | -99.98040 | 19084 ft | 264 kts | 115° |
| 2026-04-17 04:03 | 49.91178 | -99.95290 | 18670 ft | 268 kts | 104° |
| 2026-04-17 04:03 | 49.91398 | -99.92396 | 18261 ft | 280 kts | 74° |
| 2026-04-17 04:03 | 49.92475 | -99.89874 | 17859 ft | 283 kts | 43° |
| 2026-04-17 04:03 | 49.94093 | -99.88216 | 17475 ft | 279 kts | 33° |
| 2026-04-17 04:04 | 49.95404 | -99.85991 | 17081 ft | 275 kts | 64° |
| 2026-04-17 04:04 | 49.96045 | -99.83199 | 16698 ft | 269 kts | 76° |
| 2026-04-17 04:04 | 49.96420 | -99.80400 | 16289 ft | 261 kts | 96° |
| 2026-04-17 04:04 | 49.96116 | -99.77679 | 15874 ft | 256 kts | 101° |
| 2026-04-17 04:05 | 49.96373 | -99.74926 | 15466 ft | 263 kts | 69° |
| 2026-04-17 04:05 | 49.97464 | -99.72675 | 15058 ft | 260 kts | 37° |
| 2026-04-17 04:05 | 49.99070 | -99.71532 | 14605 ft | 253 kts | 7° |
| 2026-04-17 04:05 | 50.00838 | -99.71094 | 14157 ft | 251 kts | 4° |
| 2026-04-17 04:06 | 50.02571 | -99.70694 | 13696 ft | 251 kts | 4° |
| 2026-04-17 04:06 | 50.04286 | -99.70309 | 13241 ft | 250 kts | 4° |
| 2026-04-17 04:06 | 50.06009 | -99.69934 | 12780 ft | 249 kts | 4° |
| 2026-04-17 04:06 | 50.07719 | -99.69569 | 12320 ft | 248 kts | 4° |
| 2026-04-17 04:07 | 50.09426 | -99.69222 | 11861 ft | 247 kts | 4° |
| 2026-04-17 04:07 | 50.11140 | -99.68878 | 11404 ft | 246 kts | 4° |
| 2026-04-17 04:07 | 50.12834 | -99.68556 | 10947 ft | 246 kts | 4° |
| 2026-04-17 04:07 | 50.14533 | -99.68235 | 10483 ft | 245 kts | 4° |
| 2026-04-17 04:08 | 50.16253 | -99.67909 | 10017 ft | 244 kts | 4° |
| 2026-04-17 04:08 | 50.17924 | -99.67651 | 9557 ft | 241 kts | 356° |
| 2026-04-17 04:08 | 50.19480 | -99.68358 | 9080 ft | 233 kts | 324° |
| 2026-04-17 04:08 | 50.20532 | -99.70207 | 8604 ft | 225 kts | 293° |
| 2026-04-17 04:09 | 50.20749 | -99.72592 | 8122 ft | 222 kts | 261° |
| 2026-04-17 04:09 | 50.20204 | -99.74825 | 7653 ft | 221 kts | 245° |
| 2026-04-17 04:09 | 50.19530 | -99.76973 | 7168 ft | 220 kts | 245° |
| 2026-04-17 04:09 | 50.18849 | -99.79122 | 6689 ft | 220 kts | 245° |
| 2026-04-17 04:10 | 50.18172 | -99.81242 | 6211 ft | 221 kts | 245° |
| 2026-04-17 04:10 | 50.17485 | -99.83373 | 5729 ft | 222 kts | 245° |
| 2026-04-17 04:10 | 50.16789 | -99.85523 | 5249 ft | 224 kts | 245° |
| 2026-04-17 04:10 | 50.16074 | -99.87723 | 4764 ft | 226 kts | 245° |
| 2026-04-17 04:11 | 50.15331 | -99.89881 | 4278 ft | 230 kts | 237° |
| 2026-04-17 04:11 | 50.14085 | -99.91441 | 3782 ft | 231 kts | 200° |
| 2026-04-17 04:11 | 50.12497 | -99.91706 | 3294 ft | 224 kts | 165° |
| 2026-04-17 04:11 | 50.11196 | -99.90649 | 2965 ft | 204 kts | 128° |
| 2026-04-17 04:12 | 50.10559 | -99.88845 | 2926 ft | 178 kts | 105° |
| 2026-04-17 04:12 | 50.10102 | -99.87160 | 2905 ft | 164 kts | 108° |
| 2026-04-17 04:12 | 50.09400 | -99.85830 | 2901 ft | 161 kts | 146° |
| 2026-04-17 04:12 | 50.08293 | -99.85428 | 2931 ft | 170 kts | 168° |
| 2026-04-17 04:13 | 50.07052 | -99.85194 | 2943 ft | 188 kts | 168° |
| 2026-04-17 04:13 | 50.05700 | -99.84983 | 2935 ft | 202 kts | 171° |
| 2026-04-17 04:13 | 50.04258 | -99.84796 | 2938 ft | 212 kts | 171° |
| 2026-04-17 04:13 | 50.02758 | -99.84602 | 2933 ft | 220 kts | 174° |
| 2026-04-17 04:14 | 50.01192 | -99.84705 | 2937 ft | 226 kts | 181° |
| 2026-04-17 04:14 | 49.99600 | -99.84889 | 2934 ft | 223 kts | 182° |
| 2026-04-17 04:14 | 49.98043 | -99.85337 | 2936 ft | 222 kts | 190° |
| 2026-04-17 04:14 | 49.96529 | -99.85851 | 2941 ft | 220 kts | 189° |
| 2026-04-17 04:15 | 49.95002 | -99.86254 | 2947 ft | 219 kts | 186° |
| 2026-04-17 04:15 | 49.93478 | -99.86568 | 2946 ft | 208 kts | 185° |
| 2026-04-17 04:15 | 49.91968 | -99.86900 | 2925 ft | 193 kts | 185° |
| 2026-04-17 04:15 | 49.90688 | -99.87206 | 2922 ft | 180 kts | 196° |
| 2026-04-17 04:16 | 49.89733 | -99.88309 | 2923 ft | 165 kts | 242° |
| 2026-04-17 04:16 | 49.89498 | -99.89908 | 2927 ft | 141 kts | 282° |
| 2026-04-17 04:16 | 49.89637 | -99.91293 | 2897 ft | 115 kts | 301° |
| 2026-04-17 04:16 | 49.89980 | -99.92266 | 2834 ft | 93 kts | 322° |
| 2026-04-17 04:17 | 49.90447 | -99.93098 | 2298 ft | 127 kts | 315° |
| 2026-04-17 04:17 | 49.90722 | -99.94324 | 1903 ft | 116 kts | 269° |
| 2026-04-17 04:17 | 49.90459 | -99.95503 | 2059 ft | 135 kts | 235° |
| 2026-04-17 04:17 | 49.89818 | -99.96605 | 2332 ft | 135 kts | 225° |
| 2026-04-17 04:18 | 49.89148 | -99.97588 | 2305 ft | 124 kts | 251° |
| 2026-04-17 04:18 | 49.89383 | -99.98579 | 2210 ft | 105 kts | 347° |
| 2026-04-17 04:18 | 49.90168 | -99.98288 | 1966 ft | 131 kts | 37° |
| 2026-04-17 04:18 | 49.90709 | -99.97218 | 1613 ft | 124 kts | 68° |
| 2026-04-17 04:19 | 49.90757 | -99.95946 | 1337 ft | 106 kts | 87° |
| 2026-04-17 04:19 | 49.90758 | -99.95307 | 1332 ft | 40 kts | 90° |
| 2026-04-17 04:19 | 49.90756 | -99.94952 | 1330 ft | 11 kts | 94° |
| 2026-04-17 04:19 | 49.90755 | -99.94936 | 1330 ft | 6 kts | 95° |
| 2026-04-17 04:20 | 49.90754 | -99.94902 | 1330 ft | 5 kts | 91° |
| 2026-04-17 04:20 | 49.90753 | -99.94683 | 1329 ft | 32 kts | 92° |
| 2026-04-17 04:20 | 49.90752 | -99.94254 | 1328 ft | 41 kts | 93° |
| 2026-04-17 04:20 | 49.90742 | -99.93997 | 1327 ft | 3 kts | 118° |
| 2026-04-17 04:21 | 49.90696 | -99.93962 | 1327 ft | 3 kts | 229° |
| 2026-04-17 04:21 | 49.90664 | -99.94035 | 1327 ft | 10 kts | 224° |
| 2026-04-17 04:21 | 49.90659 | -99.94044 | 1327 ft | 0 kts | 226° |
| 2026-04-17 04:22 | 49.90649 | -99.94059 | 1327 ft | 3 kts | 223° |
| 2026-04-17 04:22 | 49.90644 | -99.94066 | 1327 ft | 2 kts | 224° |
| 2026-04-17 04:22 | 49.90636 | -99.94078 | 1327 ft | 0 kts | 224° |
| 2026-04-17 04:23 | 49.90635 | -99.94079 | 1327 ft | 0 kts | 224° |